sensor_id;sensor_type;location;lat;lon;timestamp;temperature;humidity
21772;DHT22;11047;47.904;8.110;2023-05-17T00:01:54;4.60;99.90
21772;DHT22;11047;47.904;8.110;2023-05-17T00:04:21;4.70;99.90
21772;DHT22;11047;47.904;8.110;2023-05-17T00:06:49;4.70;99.90
21772;DHT22;11047;47.904;8.110;2023-05-17T00:09:16;4.60;99.90
21772;DHT22;11047;47.904;8.110;2023-05-17T00:11:43;4.60;99.90
21772;DHT22;11047;47.904;8.110;2023-05-17T00:14:10;4.50;99.90
21772;DHT22;11047;47.904;8.110;2023-05-17T00:16:37;4.40;99.90
21772;DHT22;11047;47.904;8.110;2023-05-17T00:19:04;4.40;99.90
21772;DHT22;11047;47.904;8.110;2023-05-17T00:21:33;4.40;99.90
21772;DHT22;11047;47.904;8.110;2023-05-17T00:24:01;4.30;99.90
21772;DHT22;11047;47.904;8.110;2023-05-17T00:26:28;4.30;99.90
21772;DHT22;11047;47.904;8.110;2023-05-17T00:28:55;4.30;99.90
21772;DHT22;11047;47.904;8.110;2023-05-17T00:31:22;4.30;99.90
21772;DHT22;11047;47.904;8.110;2023-05-17T00:33:49;4.30;99.90
21772;DHT22;11047;47.904;8.110;2023-05-17T00:36:16;4.20;99.90
21772;DHT22;11047;47.904;8.110;2023-05-17T00:38:43;4.20;99.90
21772;DHT22;11047;47.904;8.110;2023-05-17T00:41:11;4.20;99.90
21772;DHT22;11047;47.904;8.110;2023-05-17T00:43:38;4.20;99.90
21772;DHT22;11047;47.904;8.110;2023-05-17T00:46:05;4.20;99.90
21772;DHT22;11047;47.904;8.110;2023-05-17T00:48:32;4.20;99.90
21772;DHT22;11047;47.904;8.110;2023-05-17T00:50:59;4.00;99.90
21772;DHT22;11047;47.904;8.110;2023-05-17T00:53:26;4.00;99.90
21772;DHT22;11047;47.904;8.110;2023-05-17T00:55:54;4.20;99.90
21772;DHT22;11047;47.904;8.110;2023-05-17T00:58:23;3.90;99.90
21772;DHT22;11047;47.904;8.110;2023-05-17T01:00:50;4.00;99.90
21772;DHT22;11047;47.904;8.110;2023-05-17T01:03:17;4.00;99.90
21772;DHT22;11047;47.904;8.110;2023-05-17T01:05:44;3.90;99.90
21772;DHT22;11047;47.904;8.110;2023-05-17T01:08:11;3.80;99.90
21772;DHT22;11047;47.904;8.110;2023-05-17T01:10:43;3.90;99.90
21772;DHT22;11047;47.904;8.110;2023-05-17T01:13:17;3.80;99.90
21772;DHT22;11047;47.904;8.110;2023-05-17T01:15:51;3.70;99.90
21772;DHT22;11047;47.904;8.110;2023-05-17T01:18:22;3.70;99.90
21772;DHT22;11047;47.904;8.110;2023-05-17T01:20:50;3.60;99.90
21772;DHT22;11047;47.904;8.110;2023-05-17T01:23:34;4.30;99.90
21772;DHT22;11047;47.904;8.110;2023-05-17T01:26:06;3.60;99.90
21772;DHT22;11047;47.904;8.110;2023-05-17T01:28:36;3.60;99.90
21772;DHT22;11047;47.904;8.110;2023-05-17T01:31:04;3.70;99.90
21772;DHT22;11047;47.904;8.110;2023-05-17T01:33:33;3.70;99.90
21772;DHT22;11047;47.904;8.110;2023-05-17T01:36:00;3.60;99.90
21772;DHT22;11047;47.904;8.110;2023-05-17T01:38:27;3.50;99.90
21772;DHT22;11047;47.904;8.110;2023-05-17T01:40:57;3.40;99.90
21772;DHT22;11047;47.904;8.110;2023-05-17T01:43:32;3.50;99.90
21772;DHT22;11047;47.904;8.110;2023-05-17T01:46:06;3.60;99.90
21772;DHT22;11047;47.904;8.110;2023-05-17T01:48:42;3.70;99.90
21772;DHT22;11047;47.904;8.110;2023-05-17T01:51:14;3.70;99.90
21772;DHT22;11047;47.904;8.110;2023-05-17T01:53:47;3.60;99.90
21772;DHT22;11047;47.904;8.110;2023-05-17T01:56:18;3.60;99.90
21772;DHT22;11047;47.904;8.110;2023-05-17T01:58:47;3.70;99.90
21772;DHT22;11047;47.904;8.110;2023-05-17T02:01:18;3.70;99.90
21772;DHT22;11047;47.904;8.110;2023-05-17T02:03:47;3.70;99.90
21772;DHT22;11047;47.904;8.110;2023-05-17T02:06:14;4.60;99.90
21772;DHT22;11047;47.904;8.110;2023-05-17T02:08:41;3.80;99.90
21772;DHT22;11047;47.904;8.110;2023-05-17T02:11:08;3.80;99.90
21772;DHT22;11047;47.904;8.110;2023-05-17T02:13:35;3.80;99.90
21772;DHT22;11047;47.904;8.110;2023-05-17T02:16:02;3.90;99.90
21772;DHT22;11047;47.904;8.110;2023-05-17T02:18:31;4.30;99.90
21772;DHT22;11047;47.904;8.110;2023-05-17T02:20:59;4.00;99.90
21772;DHT22;11047;47.904;8.110;2023-05-17T02:23:26;4.00;99.90
21772;DHT22;11047;47.904;8.110;2023-05-17T02:25:54;4.00;99.90
21772;DHT22;11047;47.904;8.110;2023-05-17T02:28:21;4.10;99.90
21772;DHT22;11047;47.904;8.110;2023-05-17T02:30:47;4.40;99.90
21772;DHT22;11047;47.904;8.110;2023-05-17T02:33:14;4.00;99.90
21772;DHT22;11047;47.904;8.110;2023-05-17T02:35:43;4.10;99.90
21772;DHT22;11047;47.904;8.110;2023-05-17T02:38:10;4.10;99.90
21772;DHT22;11047;47.904;8.110;2023-05-17T02:40:40;4.10;99.90
21772;DHT22;11047;47.904;8.110;2023-05-17T02:43:07;4.20;99.90
21772;DHT22;11047;47.904;8.110;2023-05-17T02:45:33;4.30;99.90
21772;DHT22;11047;47.904;8.110;2023-05-17T02:48:00;4.20;99.90
21772;DHT22;11047;47.904;8.110;2023-05-17T02:50:27;4.30;99.90
21772;DHT22;11047;47.904;8.110;2023-05-17T02:52:56;4.20;99.90
21772;DHT22;11047;47.904;8.110;2023-05-17T02:55:22;4.20;99.90
21772;DHT22;11047;47.904;8.110;2023-05-17T02:57:49;4.20;99.90
21772;DHT22;11047;47.904;8.110;2023-05-17T03:00:17;4.20;99.90
21772;DHT22;11047;47.904;8.110;2023-05-17T03:02:44;4.10;99.90
21772;DHT22;11047;47.904;8.110;2023-05-17T03:05:10;4.10;99.90
21772;DHT22;11047;47.904;8.110;2023-05-17T03:07:37;4.10;99.90
21772;DHT22;11047;47.904;8.110;2023-05-17T03:10:06;4.10;99.90
21772;DHT22;11047;47.904;8.110;2023-05-17T03:12:33;4.10;99.90
21772;DHT22;11047;47.904;8.110;2023-05-17T03:15:00;4.00;99.90
21772;DHT22;11047;47.904;8.110;2023-05-17T03:17:27;4.00;99.90
21772;DHT22;11047;47.904;8.110;2023-05-17T03:19:54;4.00;99.90
21772;DHT22;11047;47.904;8.110;2023-05-17T03:22:22;4.00;99.90
21772;DHT22;11047;47.904;8.110;2023-05-17T03:24:49;3.90;99.90
21772;DHT22;11047;47.904;8.110;2023-05-17T03:27:17;4.00;99.90
21772;DHT22;11047;47.904;8.110;2023-05-17T03:29:44;3.90;99.90
21772;DHT22;11047;47.904;8.110;2023-05-17T03:32:11;3.90;99.90
21772;DHT22;11047;47.904;8.110;2023-05-17T03:34:38;3.90;99.90
21772;DHT22;11047;47.904;8.110;2023-05-17T03:37:04;3.80;99.90
21772;DHT22;11047;47.904;8.110;2023-05-17T03:39:31;3.80;99.90
21772;DHT22;11047;47.904;8.110;2023-05-17T03:41:58;3.70;99.90
21772;DHT22;11047;47.904;8.110;2023-05-17T03:44:28;3.70;99.90
21772;DHT22;11047;47.904;8.110;2023-05-17T03:46:55;3.70;99.90
21772;DHT22;11047;47.904;8.110;2023-05-17T03:49:22;3.60;99.90
21772;DHT22;11047;47.904;8.110;2023-05-17T03:51:49;3.60;99.90
21772;DHT22;11047;47.904;8.110;2023-05-17T03:54:15;3.60;99.90
21772;DHT22;11047;47.904;8.110;2023-05-17T03:56:42;3.60;99.90
21772;DHT22;11047;47.904;8.110;2023-05-17T03:59:11;3.60;99.90
21772;DHT22;11047;47.904;8.110;2023-05-17T04:01:40;3.60;99.90
21772;DHT22;11047;47.904;8.110;2023-05-17T04:04:07;3.60;99.90
21772;DHT22;11047;47.904;8.110;2023-05-17T04:06:34;3.60;99.90
21772;DHT22;11047;47.904;8.110;2023-05-17T04:09:01;3.60;99.90
21772;DHT22;11047;47.904;8.110;2023-05-17T04:11:29;3.60;99.90
21772;DHT22;11047;47.904;8.110;2023-05-17T04:13:57;3.50;99.90
21772;DHT22;11047;47.904;8.110;2023-05-17T04:16:24;3.60;99.90
21772;DHT22;11047;47.904;8.110;2023-05-17T04:18:52;3.50;99.90
21772;DHT22;11047;47.904;8.110;2023-05-17T04:21:19;3.60;99.90
21772;DHT22;11047;47.904;8.110;2023-05-17T04:23:46;3.70;99.90
21772;DHT22;11047;47.904;8.110;2023-05-17T04:26:13;3.70;99.90
21772;DHT22;11047;47.904;8.110;2023-05-17T04:28:40;3.60;99.90
21772;DHT22;11047;47.904;8.110;2023-05-17T04:31:07;3.60;99.90
21772;DHT22;11047;47.904;8.110;2023-05-17T04:33:34;3.70;99.90
21772;DHT22;11047;47.904;8.110;2023-05-17T04:36:03;3.70;99.90
21772;DHT22;11047;47.904;8.110;2023-05-17T04:38:30;3.60;99.90
21772;DHT22;11047;47.904;8.110;2023-05-17T04:41:00;3.60;99.90
21772;DHT22;11047;47.904;8.110;2023-05-17T04:43:29;3.70;99.90
21772;DHT22;11047;47.904;8.110;2023-05-17T04:45:56;4.50;99.90
21772;DHT22;11047;47.904;8.110;2023-05-17T04:48:23;3.80;99.90
21772;DHT22;11047;47.904;8.110;2023-05-17T04:50:51;3.70;99.90
21772;DHT22;11047;47.904;8.110;2023-05-17T04:53:20;3.80;99.90
21772;DHT22;11047;47.904;8.110;2023-05-17T04:55:47;3.80;99.90
21772;DHT22;11047;47.904;8.110;2023-05-17T04:58:13;3.80;99.90
21772;DHT22;11047;47.904;8.110;2023-05-17T05:00:41;4.00;99.90
21772;DHT22;11047;47.904;8.110;2023-05-17T05:03:08;4.00;99.90
21772;DHT22;11047;47.904;8.110;2023-05-17T05:05:35;4.00;99.90
21772;DHT22;11047;47.904;8.110;2023-05-17T05:08:02;4.10;99.90
21772;DHT22;11047;47.904;8.110;2023-05-17T05:10:30;4.10;99.90
21772;DHT22;11047;47.904;8.110;2023-05-17T05:12:57;4.10;99.90
21772;DHT22;11047;47.904;8.110;2023-05-17T05:15:24;4.20;99.90
21772;DHT22;11047;47.904;8.110;2023-05-17T05:17:51;4.20;99.90
21772;DHT22;11047;47.904;8.110;2023-05-17T05:20:18;4.30;99.90
21772;DHT22;11047;47.904;8.110;2023-05-17T05:22:45;4.30;99.90
21772;DHT22;11047;47.904;8.110;2023-05-17T05:25:12;4.40;99.90
21772;DHT22;11047;47.904;8.110;2023-05-17T05:27:40;4.40;99.90
21772;DHT22;11047;47.904;8.110;2023-05-17T05:30:08;4.40;99.90
21772;DHT22;11047;47.904;8.110;2023-05-17T05:32:35;4.40;99.90
21772;DHT22;11047;47.904;8.110;2023-05-17T05:35:04;4.50;99.90
21772;DHT22;11047;47.904;8.110;2023-05-17T05:37:31;4.50;99.90
21772;DHT22;11047;47.904;8.110;2023-05-17T05:39:58;4.50;99.90
21772;DHT22;11047;47.904;8.110;2023-05-17T05:42:25;5.10;99.90
21772;DHT22;11047;47.904;8.110;2023-05-17T05:44:53;4.60;99.90
21772;DHT22;11047;47.904;8.110;2023-05-17T05:47:20;5.40;99.90
21772;DHT22;11047;47.904;8.110;2023-05-17T05:49:47;4.60;99.90
21772;DHT22;11047;47.904;8.110;2023-05-17T05:52:14;4.60;99.90
21772;DHT22;11047;47.904;8.110;2023-05-17T05:54:41;4.60;99.90
21772;DHT22;11047;47.904;8.110;2023-05-17T05:57:08;4.60;99.90
21772;DHT22;11047;47.904;8.110;2023-05-17T05:59:35;4.60;99.90
21772;DHT22;11047;47.904;8.110;2023-05-17T06:02:03;4.70;99.90
21772;DHT22;11047;47.904;8.110;2023-05-17T06:04:30;4.70;99.90
21772;DHT22;11047;47.904;8.110;2023-05-17T06:06:57;4.80;99.90
21772;DHT22;11047;47.904;8.110;2023-05-17T06:09:24;4.80;99.90
21772;DHT22;11047;47.904;8.110;2023-05-17T06:11:51;4.90;99.90
21772;DHT22;11047;47.904;8.110;2023-05-17T06:14:19;5.00;99.90
21772;DHT22;11047;47.904;8.110;2023-05-17T06:16:46;5.10;99.90
21772;DHT22;11047;47.904;8.110;2023-05-17T06:19:15;5.20;99.90
21772;DHT22;11047;47.904;8.110;2023-05-17T06:21:42;5.30;99.90
21772;DHT22;11047;47.904;8.110;2023-05-17T06:24:09;5.40;99.90
21772;DHT22;11047;47.904;8.110;2023-05-17T06:26:36;5.60;99.90
21772;DHT22;11047;47.904;8.110;2023-05-17T06:29:03;5.90;99.90
21772;DHT22;11047;47.904;8.110;2023-05-17T06:31:30;5.70;99.90
21772;DHT22;11047;47.904;8.110;2023-05-17T06:33:56;6.80;99.90
21772;DHT22;11047;47.904;8.110;2023-05-17T06:36:25;6.00;99.90
21772;DHT22;11047;47.904;8.110;2023-05-17T06:38:52;6.20;99.90
21772;DHT22;11047;47.904;8.110;2023-05-17T06:41:19;6.30;99.90
21772;DHT22;11047;47.904;8.110;2023-05-17T06:43:45;6.50;99.90
21772;DHT22;11047;47.904;8.110;2023-05-17T06:46:12;6.60;99.90
21772;DHT22;11047;47.904;8.110;2023-05-17T06:48:39;6.80;99.90
21772;DHT22;11047;47.904;8.110;2023-05-17T06:51:06;7.10;99.90
21772;DHT22;11047;47.904;8.110;2023-05-17T06:53:35;7.30;99.90
21772;DHT22;11047;47.904;8.110;2023-05-17T06:56:02;7.80;99.90
21772;DHT22;11047;47.904;8.110;2023-05-17T06:58:29;8.00;99.90
21772;DHT22;11047;47.904;8.110;2023-05-17T07:00:57;7.80;99.90
21772;DHT22;11047;47.904;8.110;2023-05-17T07:03:24;7.80;99.90
21772;DHT22;11047;47.904;8.110;2023-05-17T07:05:51;7.70;99.90
21772;DHT22;11047;47.904;8.110;2023-05-17T07:08:17;8.10;99.90
21772;DHT22;11047;47.904;8.110;2023-05-17T07:10:46;8.00;99.90
21772;DHT22;11047;47.904;8.110;2023-05-17T07:13:13;8.20;99.90
21772;DHT22;11047;47.904;8.110;2023-05-17T07:15:40;8.20;99.90
21772;DHT22;11047;47.904;8.110;2023-05-17T07:18:07;8.30;99.90
21772;DHT22;11047;47.904;8.110;2023-05-17T07:20:34;8.40;99.90
21772;DHT22;11047;47.904;8.110;2023-05-17T07:23:01;8.70;99.90
21772;DHT22;11047;47.904;8.110;2023-05-17T07:25:28;9.10;99.90
21772;DHT22;11047;47.904;8.110;2023-05-17T07:27:57;9.30;99.90
21772;DHT22;11047;47.904;8.110;2023-05-17T07:30:24;9.50;99.90
21772;DHT22;11047;47.904;8.110;2023-05-17T07:32:51;9.60;99.90
21772;DHT22;11047;47.904;8.110;2023-05-17T07:35:18;9.30;99.90
21772;DHT22;11047;47.904;8.110;2023-05-17T07:37:45;9.40;99.90
21772;DHT22;11047;47.904;8.110;2023-05-17T07:40:12;9.30;99.90
21772;DHT22;11047;47.904;8.110;2023-05-17T07:42:39;9.50;99.90
21772;DHT22;11047;47.904;8.110;2023-05-17T07:45:08;9.80;99.90
21772;DHT22;11047;47.904;8.110;2023-05-17T07:47:35;9.70;99.90
21772;DHT22;11047;47.904;8.110;2023-05-17T07:50:03;9.70;99.90
21772;DHT22;11047;47.904;8.110;2023-05-17T07:52:30;10.10;99.90
21772;DHT22;11047;47.904;8.110;2023-05-17T07:54:57;10.20;99.90
21772;DHT22;11047;47.904;8.110;2023-05-17T07:57:24;10.70;99.90
21772;DHT22;11047;47.904;8.110;2023-05-17T07:59:51;10.40;99.90
21772;DHT22;11047;47.904;8.110;2023-05-17T08:02:20;10.50;99.90
21772;DHT22;11047;47.904;8.110;2023-05-17T08:04:47;11.00;99.90
21772;DHT22;11047;47.904;8.110;2023-05-17T08:07:14;10.90;99.90
21772;DHT22;11047;47.904;8.110;2023-05-17T08:09:41;10.90;99.90
21772;DHT22;11047;47.904;8.110;2023-05-17T08:12:09;10.80;99.90
21772;DHT22;11047;47.904;8.110;2023-05-17T08:14:38;10.70;99.90
21772;DHT22;11047;47.904;8.110;2023-05-17T08:17:05;10.80;99.90
21772;DHT22;11047;47.904;8.110;2023-05-17T08:19:33;10.80;99.90
21772;DHT22;11047;47.904;8.110;2023-05-17T08:22:00;11.10;99.90
21772;DHT22;11047;47.904;8.110;2023-05-17T08:24:28;11.10;99.90
21772;DHT22;11047;47.904;8.110;2023-05-17T08:26:54;10.50;99.90
21772;DHT22;11047;47.904;8.110;2023-05-17T08:29:22;10.40;99.90
21772;DHT22;11047;47.904;8.110;2023-05-17T08:31:49;11.20;99.90
21772;DHT22;11047;47.904;8.110;2023-05-17T08:34:16;11.00;99.90
21772;DHT22;11047;47.904;8.110;2023-05-17T08:36:44;10.60;99.90
21772;DHT22;11047;47.904;8.110;2023-05-17T08:39:12;10.60;99.90
21772;DHT22;11047;47.904;8.110;2023-05-17T08:41:39;11.00;99.90
21772;DHT22;11047;47.904;8.110;2023-05-17T08:44:06;10.80;99.90
21772;DHT22;11047;47.904;8.110;2023-05-17T08:46:34;11.40;99.90
21772;DHT22;11047;47.904;8.110;2023-05-17T08:49:04;11.60;99.90
21772;DHT22;11047;47.904;8.110;2023-05-17T08:51:31;11.90;99.90
21772;DHT22;11047;47.904;8.110;2023-05-17T08:54:00;12.50;99.90
21772;DHT22;11047;47.904;8.110;2023-05-17T08:56:33;12.00;99.90
21772;DHT22;11047;47.904;8.110;2023-05-17T08:59:01;11.80;99.90
21772;DHT22;11047;47.904;8.110;2023-05-17T09:01:30;12.30;99.90
21772;DHT22;11047;47.904;8.110;2023-05-17T09:03:58;12.10;99.90
21772;DHT22;11047;47.904;8.110;2023-05-17T09:06:25;11.50;99.90
21772;DHT22;11047;47.904;8.110;2023-05-17T09:08:53;11.30;99.90
21772;DHT22;11047;47.904;8.110;2023-05-17T09:11:26;11.30;99.90
21772;DHT22;11047;47.904;8.110;2023-05-17T09:13:56;10.60;99.90
21772;DHT22;11047;47.904;8.110;2023-05-17T09:16:23;10.40;99.90
21772;DHT22;11047;47.904;8.110;2023-05-17T09:18:55;10.60;99.90
21772;DHT22;11047;47.904;8.110;2023-05-17T09:21:22;10.70;99.90
21772;DHT22;11047;47.904;8.110;2023-05-17T09:23:50;10.30;99.90
21772;DHT22;11047;47.904;8.110;2023-05-17T09:26:19;10.50;99.90
21772;DHT22;11047;47.904;8.110;2023-05-17T09:28:48;9.80;99.90
21772;DHT22;11047;47.904;8.110;2023-05-17T09:31:16;10.30;99.90
21772;DHT22;11047;47.904;8.110;2023-05-17T09:33:44;10.50;99.90
21772;DHT22;11047;47.904;8.110;2023-05-17T09:36:18;10.20;99.90
21772;DHT22;11047;47.904;8.110;2023-05-17T09:38:52;10.10;99.90
21772;DHT22;11047;47.904;8.110;2023-05-17T09:41:19;9.90;99.90
21772;DHT22;11047;47.904;8.110;2023-05-17T09:43:48;10.50;99.90
21772;DHT22;11047;47.904;8.110;2023-05-17T09:46:15;10.90;99.90
21772;DHT22;11047;47.904;8.110;2023-05-17T09:48:42;11.60;99.90
21772;DHT22;11047;47.904;8.110;2023-05-17T09:51:11;11.70;99.90
21772;DHT22;11047;47.904;8.110;2023-05-17T09:53:38;11.80;99.90
21772;DHT22;11047;47.904;8.110;2023-05-17T09:56:08;11.60;99.90
21772;DHT22;11047;47.904;8.110;2023-05-17T09:58:36;11.00;99.90
21772;DHT22;11047;47.904;8.110;2023-05-17T10:01:06;10.80;99.90
21772;DHT22;11047;47.904;8.110;2023-05-17T10:03:34;10.70;99.90
21772;DHT22;11047;47.904;8.110;2023-05-17T10:06:05;10.70;99.90
21772;DHT22;11047;47.904;8.110;2023-05-17T10:08:33;10.50;99.90
21772;DHT22;11047;47.904;8.110;2023-05-17T10:11:05;10.80;99.90
21772;DHT22;11047;47.904;8.110;2023-05-17T10:13:39;10.80;99.90
21772;DHT22;11047;47.904;8.110;2023-05-17T10:16:14;11.50;99.90
21772;DHT22;11047;47.904;8.110;2023-05-17T10:18:42;11.90;99.90
21772;DHT22;11047;47.904;8.110;2023-05-17T10:21:09;11.80;99.90
21772;DHT22;11047;47.904;8.110;2023-05-17T10:23:38;12.20;99.90
21772;DHT22;11047;47.904;8.110;2023-05-17T10:26:07;12.20;99.90
21772;DHT22;11047;47.904;8.110;2023-05-17T10:28:36;11.80;99.90
21772;DHT22;11047;47.904;8.110;2023-05-17T10:31:03;11.60;99.90
21772;DHT22;11047;47.904;8.110;2023-05-17T10:33:32;11.30;99.90
21772;DHT22;11047;47.904;8.110;2023-05-17T10:36:01;12.00;99.90
21772;DHT22;11047;47.904;8.110;2023-05-17T10:38:28;12.30;99.90
21772;DHT22;11047;47.904;8.110;2023-05-17T10:40:56;12.50;99.90
21772;DHT22;11047;47.904;8.110;2023-05-17T10:43:23;12.50;99.90
21772;DHT22;11047;47.904;8.110;2023-05-17T10:45:51;13.00;99.90
21772;DHT22;11047;47.904;8.110;2023-05-17T10:48:19;12.90;99.90
21772;DHT22;11047;47.904;8.110;2023-05-17T10:50:48;12.60;99.90
21772;DHT22;11047;47.904;8.110;2023-05-17T10:53:15;12.20;99.90
21772;DHT22;11047;47.904;8.110;2023-05-17T10:55:43;12.30;99.90
21772;DHT22;11047;47.904;8.110;2023-05-17T10:58:18;12.50;99.90
21772;DHT22;11047;47.904;8.110;2023-05-17T11:00:46;12.90;99.90
21772;DHT22;11047;47.904;8.110;2023-05-17T11:03:15;13.60;99.90
21772;DHT22;11047;47.904;8.110;2023-05-17T11:05:44;13.50;99.90
21772;DHT22;11047;47.904;8.110;2023-05-17T11:08:14;13.90;99.90
21772;DHT22;11047;47.904;8.110;2023-05-17T11:11:07;13.70;99.90
21772;DHT22;11047;47.904;8.110;2023-05-17T11:13:43;13.70;99.90
21772;DHT22;11047;47.904;8.110;2023-05-17T11:16:14;13.80;99.90
21772;DHT22;11047;47.904;8.110;2023-05-17T11:18:48;13.90;99.90
21772;DHT22;11047;47.904;8.110;2023-05-17T11:21:16;13.90;99.90
21772;DHT22;11047;47.904;8.110;2023-05-17T11:23:46;13.40;99.90
21772;DHT22;11047;47.904;8.110;2023-05-17T11:26:20;13.30;99.90
21772;DHT22;11047;47.904;8.110;2023-05-17T11:28:48;13.70;99.90
21772;DHT22;11047;47.904;8.110;2023-05-17T11:31:28;13.60;99.90
21772;DHT22;11047;47.904;8.110;2023-05-17T11:33:57;14.00;99.90
21772;DHT22;11047;47.904;8.110;2023-05-17T11:36:25;13.90;99.90
21772;DHT22;11047;47.904;8.110;2023-05-17T11:39:11;13.90;99.90
21772;DHT22;11047;47.904;8.110;2023-05-17T11:41:46;14.00;99.90
21772;DHT22;11047;47.904;8.110;2023-05-17T11:44:14;14.10;99.90
21772;DHT22;11047;47.904;8.110;2023-05-17T11:46:43;14.00;99.90
21772;DHT22;11047;47.904;8.110;2023-05-17T11:49:10;14.20;99.90
21772;DHT22;11047;47.904;8.110;2023-05-17T11:51:38;13.60;99.90
21772;DHT22;11047;47.904;8.110;2023-05-17T11:54:06;13.20;99.90
21772;DHT22;11047;47.904;8.110;2023-05-17T11:56:35;12.70;99.90
21772;DHT22;11047;47.904;8.110;2023-05-17T11:59:02;12.30;99.90
21772;DHT22;11047;47.904;8.110;2023-05-17T12:01:41;12.10;99.90
21772;DHT22;11047;47.904;8.110;2023-05-17T12:04:08;12.40;99.90
21772;DHT22;11047;47.904;8.110;2023-05-17T12:06:35;13.10;99.90
21772;DHT22;11047;47.904;8.110;2023-05-17T12:09:03;13.80;99.90
21772;DHT22;11047;47.904;8.110;2023-05-17T12:11:36;13.80;99.90
21772;DHT22;11047;47.904;8.110;2023-05-17T12:14:04;13.80;99.90
21772;DHT22;11047;47.904;8.110;2023-05-17T12:16:31;13.60;99.90
21772;DHT22;11047;47.904;8.110;2023-05-17T12:18:59;13.60;99.90
21772;DHT22;11047;47.904;8.110;2023-05-17T12:21:26;13.00;99.90
21772;DHT22;11047;47.904;8.110;2023-05-17T12:23:53;13.00;99.90
21772;DHT22;11047;47.904;8.110;2023-05-17T12:26:21;13.30;99.90
21772;DHT22;11047;47.904;8.110;2023-05-17T12:28:54;13.30;99.90
21772;DHT22;11047;47.904;8.110;2023-05-17T12:31:26;13.30;99.90
21772;DHT22;11047;47.904;8.110;2023-05-17T12:33:55;13.10;99.90
21772;DHT22;11047;47.904;8.110;2023-05-17T12:36:24;12.60;99.90
21772;DHT22;11047;47.904;8.110;2023-05-17T12:38:54;12.40;99.90
21772;DHT22;11047;47.904;8.110;2023-05-17T12:41:21;12.20;99.90
21772;DHT22;11047;47.904;8.110;2023-05-17T12:43:50;12.10;99.90
21772;DHT22;11047;47.904;8.110;2023-05-17T12:46:21;12.00;99.90
21772;DHT22;11047;47.904;8.110;2023-05-17T12:48:49;11.80;99.90
21772;DHT22;11047;47.904;8.110;2023-05-17T12:51:18;11.90;99.90
21772;DHT22;11047;47.904;8.110;2023-05-17T12:53:49;12.00;99.90
21772;DHT22;11047;47.904;8.110;2023-05-17T12:56:17;12.30;99.90
21772;DHT22;11047;47.904;8.110;2023-05-17T12:59:05;12.50;99.90
21772;DHT22;11047;47.904;8.110;2023-05-17T13:01:34;12.40;99.90
21772;DHT22;11047;47.904;8.110;2023-05-17T13:04:02;12.50;99.90
21772;DHT22;11047;47.904;8.110;2023-05-17T13:06:29;12.40;99.90
21772;DHT22;11047;47.904;8.110;2023-05-17T13:09:08;12.80;99.90
21772;DHT22;11047;47.904;8.110;2023-05-17T13:11:35;12.60;99.90
21772;DHT22;11047;47.904;8.110;2023-05-17T13:14:05;12.40;99.90
21772;DHT22;11047;47.904;8.110;2023-05-17T13:16:36;12.30;99.90
21772;DHT22;11047;47.904;8.110;2023-05-17T13:19:11;12.20;99.90
21772;DHT22;11047;47.904;8.110;2023-05-17T13:21:38;12.30;99.90
21772;DHT22;11047;47.904;8.110;2023-05-17T13:24:07;12.40;99.90
21772;DHT22;11047;47.904;8.110;2023-05-17T13:26:34;12.40;99.90
21772;DHT22;11047;47.904;8.110;2023-05-17T13:29:01;12.60;99.90
21772;DHT22;11047;47.904;8.110;2023-05-17T13:31:28;12.40;99.90
21772;DHT22;11047;47.904;8.110;2023-05-17T13:33:56;12.50;99.90
21772;DHT22;11047;47.904;8.110;2023-05-17T13:36:23;12.80;99.90
21772;DHT22;11047;47.904;8.110;2023-05-17T13:38:50;12.90;99.90
21772;DHT22;11047;47.904;8.110;2023-05-17T13:41:17;12.70;99.90
21772;DHT22;11047;47.904;8.110;2023-05-17T13:43:44;12.60;99.90
21772;DHT22;11047;47.904;8.110;2023-05-17T13:46:11;12.20;99.90
21772;DHT22;11047;47.904;8.110;2023-05-17T13:48:38;12.20;99.90
21772;DHT22;11047;47.904;8.110;2023-05-17T13:51:06;12.50;99.90
21772;DHT22;11047;47.904;8.110;2023-05-17T13:53:33;12.50;99.90
21772;DHT22;11047;47.904;8.110;2023-05-17T13:56:03;12.90;99.90
21772;DHT22;11047;47.904;8.110;2023-05-17T13:58:30;12.80;99.90
21772;DHT22;11047;47.904;8.110;2023-05-17T14:00:57;12.50;99.90
21772;DHT22;11047;47.904;8.110;2023-05-17T14:03:24;12.30;99.90
21772;DHT22;11047;47.904;8.110;2023-05-17T14:05:51;12.00;99.90
21772;DHT22;11047;47.904;8.110;2023-05-17T14:08:20;12.00;99.90
21772;DHT22;11047;47.904;8.110;2023-05-17T14:10:47;12.40;99.90
21772;DHT22;11047;47.904;8.110;2023-05-17T14:13:14;12.70;99.90
21772;DHT22;11047;47.904;8.110;2023-05-17T14:15:41;13.00;99.90
21772;DHT22;11047;47.904;8.110;2023-05-17T14:18:08;13.00;99.90
21772;DHT22;11047;47.904;8.110;2023-05-17T14:20:35;12.90;99.90
21772;DHT22;11047;47.904;8.110;2023-05-17T14:23:02;12.70;99.90
21772;DHT22;11047;47.904;8.110;2023-05-17T14:25:31;12.30;99.90
21772;DHT22;11047;47.904;8.110;2023-05-17T14:27:58;12.00;99.90
21772;DHT22;11047;47.904;8.110;2023-05-17T14:30:24;11.90;99.90
21772;DHT22;11047;47.904;8.110;2023-05-17T14:32:51;12.00;99.90
21772;DHT22;11047;47.904;8.110;2023-05-17T14:35:18;12.10;99.90
21772;DHT22;11047;47.904;8.110;2023-05-17T14:37:45;12.10;99.90
21772;DHT22;11047;47.904;8.110;2023-05-17T14:40:12;12.00;99.90
21772;DHT22;11047;47.904;8.110;2023-05-17T14:42:41;12.00;99.90
21772;DHT22;11047;47.904;8.110;2023-05-17T14:45:08;12.00;99.90
21772;DHT22;11047;47.904;8.110;2023-05-17T14:47:35;11.80;99.90
21772;DHT22;11047;47.904;8.110;2023-05-17T14:50:02;11.80;99.90
21772;DHT22;11047;47.904;8.110;2023-05-17T14:52:29;11.80;99.90
21772;DHT22;11047;47.904;8.110;2023-05-17T14:54:56;12.00;99.90
21772;DHT22;11047;47.904;8.110;2023-05-17T14:57:23;11.80;99.90
21772;DHT22;11047;47.904;8.110;2023-05-17T14:59:52;12.00;99.90
21772;DHT22;11047;47.904;8.110;2023-05-17T15:02:19;11.70;99.90
21772;DHT22;11047;47.904;8.110;2023-05-17T15:04:46;11.50;99.90
21772;DHT22;11047;47.904;8.110;2023-05-17T15:07:12;11.50;99.90
21772;DHT22;11047;47.904;8.110;2023-05-17T15:09:40;11.60;99.90
21772;DHT22;11047;47.904;8.110;2023-05-17T15:12:08;11.70;99.90
21772;DHT22;11047;47.904;8.110;2023-05-17T15:14:35;11.90;99.90
21772;DHT22;11047;47.904;8.110;2023-05-17T15:17:04;11.90;99.90
21772;DHT22;11047;47.904;8.110;2023-05-17T15:19:31;11.90;99.90
21772;DHT22;11047;47.904;8.110;2023-05-17T15:21:58;11.70;99.90
21772;DHT22;11047;47.904;8.110;2023-05-17T15:24:26;11.50;99.90
21772;DHT22;11047;47.904;8.110;2023-05-17T15:26:53;11.40;99.90
21772;DHT22;11047;47.904;8.110;2023-05-17T15:29:20;11.40;99.90
21772;DHT22;11047;47.904;8.110;2023-05-17T15:31:47;11.50;99.90
21772;DHT22;11047;47.904;8.110;2023-05-17T15:34:16;11.60;99.90
21772;DHT22;11047;47.904;8.110;2023-05-17T15:36:43;11.60;99.90
21772;DHT22;11047;47.904;8.110;2023-05-17T15:39:09;11.70;99.90
21772;DHT22;11047;47.904;8.110;2023-05-17T15:41:36;11.80;99.90
21772;DHT22;11047;47.904;8.110;2023-05-17T15:44:05;11.70;99.90